sensor_id;sensor_type;location;lat;lon;timestamp;P1;durP1;ratioP1;P2;durP2;ratioP2
22737;SDS011;11536;50.860;4.286;2023-03-11T00:01:02;7.80;;;2.05;;
22737;SDS011;11536;50.860;4.286;2023-03-11T00:03:28;8.45;;;1.90;;
22737;SDS011;11536;50.860;4.286;2023-03-11T00:05:54;8.27;;;1.80;;
22737;SDS011;11536;50.860;4.286;2023-03-11T00:08:22;9.55;;;1.60;;
22737;SDS011;11536;50.860;4.286;2023-03-11T00:10:53;8.75;;;2.38;;
22737;SDS011;11536;50.860;4.286;2023-03-11T00:13:19;6.85;;;1.95;;
22737;SDS011;11536;50.860;4.286;2023-03-11T00:15:46;6.90;;;2.00;;
22737;SDS011;11536;50.860;4.286;2023-03-11T00:18:13;9.85;;;1.60;;
22737;SDS011;11536;50.860;4.286;2023-03-11T00:20:39;11.23;;;1.58;;
22737;SDS011;11536;50.860;4.286;2023-03-11T00:23:07;7.32;;;1.85;;
22737;SDS011;11536;50.860;4.286;2023-03-11T00:25:33;5.43;;;1.55;;
22737;SDS011;11536;50.860;4.286;2023-03-11T00:28:01;6.15;;;1.70;;
22737;SDS011;11536;50.860;4.286;2023-03-11T00:30:27;6.40;;;1.80;;
22737;SDS011;11536;50.860;4.286;2023-03-11T00:32:54;9.93;;;1.77;;
22737;SDS011;11536;50.860;4.286;2023-03-11T00:35:22;10.77;;;1.80;;
22737;SDS011;11536;50.860;4.286;2023-03-11T00:37:52;6.68;;;1.85;;
22737;SDS011;11536;50.860;4.286;2023-03-11T00:40:30;6.18;;;1.83;;
22737;SDS011;11536;50.860;4.286;2023-03-11T00:42:57;7.60;;;1.75;;
22737;SDS011;11536;50.860;4.286;2023-03-11T00:45:23;6.40;;;1.70;;
22737;SDS011;11536;50.860;4.286;2023-03-11T00:47:50;6.97;;;1.73;;
22737;SDS011;11536;50.860;4.286;2023-03-11T00:50:21;6.95;;;1.63;;
22737;SDS011;11536;50.860;4.286;2023-03-11T00:52:49;8.30;;;2.35;;
22737;SDS011;11536;50.860;4.286;2023-03-11T00:55:17;10.18;;;2.65;;
22737;SDS011;11536;50.860;4.286;2023-03-11T00:57:48;7.82;;;1.70;;
22737;SDS011;11536;50.860;4.286;2023-03-11T01:00:17;9.93;;;1.70;;
22737;SDS011;11536;50.860;4.286;2023-03-11T01:02:43;7.57;;;1.70;;
22737;SDS011;11536;50.860;4.286;2023-03-11T01:05:09;9.52;;;1.67;;
22737;SDS011;11536;50.860;4.286;2023-03-11T01:07:36;7.15;;;1.40;;
22737;SDS011;11536;50.860;4.286;2023-03-11T01:10:01;6.82;;;1.42;;
22737;SDS011;11536;50.860;4.286;2023-03-11T01:12:27;11.73;;;1.90;;
22737;SDS011;11536;50.860;4.286;2023-03-11T01:14:53;5.55;;;1.30;;
22737;SDS011;11536;50.860;4.286;2023-03-11T01:17:18;10.43;;;1.75;;
22737;SDS011;11536;50.860;4.286;2023-03-11T01:19:46;11.00;;;1.90;;
22737;SDS011;11536;50.860;4.286;2023-03-11T01:22:12;8.88;;;1.95;;
22737;SDS011;11536;50.860;4.286;2023-03-11T01:24:38;6.05;;;1.55;;
22737;SDS011;11536;50.860;4.286;2023-03-11T01:27:03;5.97;;;1.80;;
22737;SDS011;11536;50.860;4.286;2023-03-11T01:29:29;6.15;;;1.85;;
22737;SDS011;11536;50.860;4.286;2023-03-11T01:31:54;5.55;;;1.60;;
22737;SDS011;11536;50.860;4.286;2023-03-11T01:34:20;9.50;;;1.80;;
22737;SDS011;11536;50.860;4.286;2023-03-11T01:36:45;5.43;;;2.00;;
22737;SDS011;11536;50.860;4.286;2023-03-11T01:39:11;5.45;;;1.85;;
22737;SDS011;11536;50.860;4.286;2023-03-11T01:41:37;7.25;;;2.25;;
22737;SDS011;11536;50.860;4.286;2023-03-11T01:44:02;11.52;;;2.47;;
22737;SDS011;11536;50.860;4.286;2023-03-11T01:46:34;8.43;;;2.30;;
22737;SDS011;11536;50.860;4.286;2023-03-11T01:49:23;7.95;;;2.20;;
22737;SDS011;11536;50.860;4.286;2023-03-11T01:51:50;8.65;;;1.90;;
22737;SDS011;11536;50.860;4.286;2023-03-11T01:54:23;7.50;;;2.20;;
22737;SDS011;11536;50.860;4.286;2023-03-11T01:56:55;8.35;;;1.92;;
22737;SDS011;11536;50.860;4.286;2023-03-11T01:59:24;7.90;;;2.47;;
22737;SDS011;11536;50.860;4.286;2023-03-11T02:04:29;8.82;;;2.42;;
22737;SDS011;11536;50.860;4.286;2023-03-11T02:06:58;9.38;;;2.53;;
22737;SDS011;11536;50.860;4.286;2023-03-11T02:09:25;16.02;;;2.65;;
22737;SDS011;11536;50.860;4.286;2023-03-11T02:11:51;11.18;;;2.72;;
22737;SDS011;11536;50.860;4.286;2023-03-11T02:14:17;11.13;;;2.90;;
22737;SDS011;11536;50.860;4.286;2023-03-11T02:16:43;6.80;;;2.30;;
22737;SDS011;11536;50.860;4.286;2023-03-11T02:19:11;12.45;;;2.80;;
22737;SDS011;11536;50.860;4.286;2023-03-11T02:21:44;12.27;;;3.08;;
22737;SDS011;11536;50.860;4.286;2023-03-11T02:29:17;9.40;;;2.75;;
22737;SDS011;11536;50.860;4.286;2023-03-11T02:31:45;10.95;;;2.80;;
22737;SDS011;11536;50.860;4.286;2023-03-11T02:34:18;7.10;;;2.92;;
22737;SDS011;11536;50.860;4.286;2023-03-11T02:36:48;6.68;;;2.50;;
22737;SDS011;11536;50.860;4.286;2023-03-11T02:39:13;8.30;;;2.63;;
22737;SDS011;11536;50.860;4.286;2023-03-11T02:41:41;9.80;;;2.90;;
22737;SDS011;11536;50.860;4.286;2023-03-11T02:44:10;10.52;;;3.13;;
22737;SDS011;11536;50.860;4.286;2023-03-11T02:46:38;8.65;;;3.00;;
22737;SDS011;11536;50.860;4.286;2023-03-11T02:49:05;8.52;;;2.70;;
22737;SDS011;11536;50.860;4.286;2023-03-11T02:51:31;9.93;;;2.92;;
22737;SDS011;11536;50.860;4.286;2023-03-11T02:53:58;9.07;;;3.15;;
22737;SDS011;11536;50.860;4.286;2023-03-11T02:56:28;9.25;;;2.83;;
22737;SDS011;11536;50.860;4.286;2023-03-11T02:58:53;8.18;;;2.92;;
22737;SDS011;11536;50.860;4.286;2023-03-11T03:01:19;7.18;;;2.90;;
22737;SDS011;11536;50.860;4.286;2023-03-11T03:03:45;7.75;;;2.78;;
22737;SDS011;11536;50.860;4.286;2023-03-11T03:06:10;12.20;;;3.05;;
22737;SDS011;11536;50.860;4.286;2023-03-11T03:08:36;8.48;;;2.85;;
22737;SDS011;11536;50.860;4.286;2023-03-11T03:11:02;5.63;;;2.65;;
22737;SDS011;11536;50.860;4.286;2023-03-11T03:13:27;9.80;;;3.15;;
22737;SDS011;11536;50.860;4.286;2023-03-11T03:15:53;10.93;;;3.03;;
22737;SDS011;11536;50.860;4.286;2023-03-11T03:18:19;7.18;;;2.83;;
22737;SDS011;11536;50.860;4.286;2023-03-11T03:20:45;7.55;;;2.60;;
22737;SDS011;11536;50.860;4.286;2023-03-11T03:23:10;8.07;;;2.88;;
22737;SDS011;11536;50.860;4.286;2023-03-11T03:25:36;12.52;;;3.30;;
22737;SDS011;11536;50.860;4.286;2023-03-11T03:28:05;11.93;;;3.63;;
22737;SDS011;11536;50.860;4.286;2023-03-11T03:30:31;11.63;;;3.55;;
22737;SDS011;11536;50.860;4.286;2023-03-11T03:32:56;12.75;;;2.97;;
22737;SDS011;11536;50.860;4.286;2023-03-11T03:35:22;10.65;;;2.75;;
22737;SDS011;11536;50.860;4.286;2023-03-11T03:37:47;11.48;;;2.97;;
22737;SDS011;11536;50.860;4.286;2023-03-11T03:40:13;11.55;;;3.20;;
22737;SDS011;11536;50.860;4.286;2023-03-11T03:42:38;12.48;;;3.00;;
22737;SDS011;11536;50.860;4.286;2023-03-11T03:45:05;8.93;;;2.88;;
22737;SDS011;11536;50.860;4.286;2023-03-11T03:47:32;14.13;;;3.40;;
22737;SDS011;11536;50.860;4.286;2023-03-11T03:49:58;9.60;;;3.03;;
22737;SDS011;11536;50.860;4.286;2023-03-11T03:52:24;9.70;;;2.92;;
22737;SDS011;11536;50.860;4.286;2023-03-11T03:54:49;10.30;;;3.35;;
22737;SDS011;11536;50.860;4.286;2023-03-11T03:57:15;8.88;;;2.90;;
22737;SDS011;11536;50.860;4.286;2023-03-11T03:59:41;16.17;;;3.85;;
22737;SDS011;11536;50.860;4.286;2023-03-11T04:02:07;9.05;;;3.20;;
22737;SDS011;11536;50.860;4.286;2023-03-11T04:04:32;9.27;;;3.20;;
22737;SDS011;11536;50.860;4.286;2023-03-11T04:06:58;12.20;;;3.30;;
22737;SDS011;11536;50.860;4.286;2023-03-11T04:09:23;13.88;;;3.38;;
22737;SDS011;11536;50.860;4.286;2023-03-11T04:11:49;8.23;;;2.97;;
22737;SDS011;11536;50.860;4.286;2023-03-11T04:14:15;10.85;;;3.10;;
22737;SDS011;11536;50.860;4.286;2023-03-11T04:16:40;11.65;;;3.53;;
22737;SDS011;11536;50.860;4.286;2023-03-11T04:19:06;8.07;;;2.85;;
22737;SDS011;11536;50.860;4.286;2023-03-11T04:21:32;9.50;;;3.08;;
22737;SDS011;11536;50.860;4.286;2023-03-11T04:23:58;10.35;;;3.03;;
22737;SDS011;11536;50.860;4.286;2023-03-11T04:26:24;9.15;;;3.28;;
22737;SDS011;11536;50.860;4.286;2023-03-11T04:28:50;7.50;;;3.28;;
22737;SDS011;11536;50.860;4.286;2023-03-11T04:31:16;10.02;;;3.95;;
22737;SDS011;11536;50.860;4.286;2023-03-11T04:33:41;8.88;;;2.85;;
22737;SDS011;11536;50.860;4.286;2023-03-11T04:36:07;8.57;;;3.08;;
22737;SDS011;11536;50.860;4.286;2023-03-11T04:38:33;10.57;;;3.13;;
22737;SDS011;11536;50.860;4.286;2023-03-11T04:41:00;9.93;;;3.85;;
22737;SDS011;11536;50.860;4.286;2023-03-11T04:43:27;11.45;;;3.15;;
22737;SDS011;11536;50.860;4.286;2023-03-11T04:45:52;10.32;;;3.33;;
22737;SDS011;11536;50.860;4.286;2023-03-11T04:48:18;14.93;;;3.50;;
22737;SDS011;11536;50.860;4.286;2023-03-11T04:50:44;12.75;;;3.72;;
22737;SDS011;11536;50.860;4.286;2023-03-11T04:53:09;9.57;;;2.95;;
22737;SDS011;11536;50.860;4.286;2023-03-11T04:55:35;16.15;;;3.80;;
22737;SDS011;11536;50.860;4.286;2023-03-11T04:58:01;13.77;;;3.78;;
22737;SDS011;11536;50.860;4.286;2023-03-11T05:00:26;11.32;;;3.63;;
22737;SDS011;11536;50.860;4.286;2023-03-11T05:02:52;13.23;;;3.95;;
22737;SDS011;11536;50.860;4.286;2023-03-11T05:05:18;9.85;;;3.33;;
22737;SDS011;11536;50.860;4.286;2023-03-11T05:07:44;9.35;;;3.35;;
22737;SDS011;11536;50.860;4.286;2023-03-11T05:10:10;9.93;;;3.80;;
22737;SDS011;11536;50.860;4.286;2023-03-11T05:12:36;13.68;;;4.13;;
22737;SDS011;11536;50.860;4.286;2023-03-11T05:15:01;19.25;;;3.88;;
22737;SDS011;11536;50.860;4.286;2023-03-11T05:17:27;10.65;;;4.10;;
22737;SDS011;11536;50.860;4.286;2023-03-11T05:19:53;12.80;;;3.67;;
22737;SDS011;11536;50.860;4.286;2023-03-11T05:22:19;10.10;;;3.40;;
22737;SDS011;11536;50.860;4.286;2023-03-11T05:24:45;13.27;;;3.90;;
22737;SDS011;11536;50.860;4.286;2023-03-11T05:27:11;11.40;;;3.47;;
22737;SDS011;11536;50.860;4.286;2023-03-11T05:29:37;9.80;;;3.90;;
22737;SDS011;11536;50.860;4.286;2023-03-11T05:32:03;9.05;;;3.72;;
22737;SDS011;11536;50.860;4.286;2023-03-11T05:34:29;9.82;;;3.72;;
22737;SDS011;11536;50.860;4.286;2023-03-11T05:36:55;9.45;;;3.63;;
22737;SDS011;11536;50.860;4.286;2023-03-11T05:39:20;10.32;;;3.70;;
22737;SDS011;11536;50.860;4.286;2023-03-11T05:41:46;17.45;;;7.93;;
22737;SDS011;11536;50.860;4.286;2023-03-11T05:44:12;22.17;;;12.65;;
22737;SDS011;11536;50.860;4.286;2023-03-11T05:46:37;13.20;;;4.60;;
22737;SDS011;11536;50.860;4.286;2023-03-11T05:49:03;10.43;;;3.58;;
22737;SDS011;11536;50.860;4.286;2023-03-11T05:51:28;13.23;;;4.35;;
22737;SDS011;11536;50.860;4.286;2023-03-11T05:53:54;12.27;;;3.50;;
22737;SDS011;11536;50.860;4.286;2023-03-11T05:56:21;9.38;;;4.07;;
22737;SDS011;11536;50.860;4.286;2023-03-11T05:58:47;12.15;;;3.85;;
22737;SDS011;11536;50.860;4.286;2023-03-11T06:01:14;11.57;;;3.28;;
22737;SDS011;11536;50.860;4.286;2023-03-11T06:03:42;12.35;;;3.95;;
22737;SDS011;11536;50.860;4.286;2023-03-11T06:06:08;12.95;;;3.60;;
22737;SDS011;11536;50.860;4.286;2023-03-11T06:08:35;10.05;;;3.40;;
22737;SDS011;11536;50.860;4.286;2023-03-11T06:11:02;9.98;;;3.70;;
22737;SDS011;11536;50.860;4.286;2023-03-11T06:13:28;10.70;;;3.63;;
22737;SDS011;11536;50.860;4.286;2023-03-11T06:15:54;11.18;;;3.95;;
22737;SDS011;11536;50.860;4.286;2023-03-11T06:18:19;10.82;;;3.78;;
22737;SDS011;11536;50.860;4.286;2023-03-11T06:20:45;14.52;;;4.07;;
22737;SDS011;11536;50.860;4.286;2023-03-11T06:23:11;11.73;;;4.00;;
22737;SDS011;11536;50.860;4.286;2023-03-11T06:25:36;10.30;;;4.13;;
22737;SDS011;11536;50.860;4.286;2023-03-11T06:28:02;11.80;;;4.38;;
22737;SDS011;11536;50.860;4.286;2023-03-11T06:30:28;7.75;;;3.80;;
22737;SDS011;11536;50.860;4.286;2023-03-11T06:32:53;11.40;;;4.28;;
22737;SDS011;11536;50.860;4.286;2023-03-11T06:35:19;16.02;;;4.97;;
22737;SDS011;11536;50.860;4.286;2023-03-11T06:37:45;15.73;;;5.15;;
22737;SDS011;11536;50.860;4.286;2023-03-11T06:40:10;10.27;;;4.65;;
22737;SDS011;11536;50.860;4.286;2023-03-11T06:42:36;18.35;;;6.28;;
22737;SDS011;11536;50.860;4.286;2023-03-11T06:45:02;12.75;;;5.45;;
22737;SDS011;11536;50.860;4.286;2023-03-11T06:47:28;10.35;;;4.90;;
22737;SDS011;11536;50.860;4.286;2023-03-11T06:49:54;13.73;;;4.60;;
22737;SDS011;11536;50.860;4.286;2023-03-11T06:52:19;13.80;;;5.72;;
22737;SDS011;11536;50.860;4.286;2023-03-11T06:54:45;13.15;;;5.68;;
22737;SDS011;11536;50.860;4.286;2023-03-11T06:57:11;12.93;;;5.07;;
22737;SDS011;11536;50.860;4.286;2023-03-11T06:59:37;12.63;;;5.22;;
22737;SDS011;11536;50.860;4.286;2023-03-11T07:02:03;15.82;;;5.55;;
22737;SDS011;11536;50.860;4.286;2023-03-11T07:04:30;11.45;;;5.00;;
22737;SDS011;11536;50.860;4.286;2023-03-11T07:06:56;12.85;;;4.93;;
22737;SDS011;11536;50.860;4.286;2023-03-11T07:09:22;9.85;;;4.90;;
22737;SDS011;11536;50.860;4.286;2023-03-11T07:11:49;11.63;;;4.80;;
22737;SDS011;11536;50.860;4.286;2023-03-11T07:14:16;11.10;;;5.38;;
22737;SDS011;11536;50.860;4.286;2023-03-11T07:16:42;14.77;;;5.95;;
22737;SDS011;11536;50.860;4.286;2023-03-11T07:19:09;14.88;;;6.10;;
22737;SDS011;11536;50.860;4.286;2023-03-11T07:21:35;13.68;;;5.45;;
22737;SDS011;11536;50.860;4.286;2023-03-11T07:24:01;11.70;;;5.43;;
22737;SDS011;11536;50.860;4.286;2023-03-11T07:26:27;10.98;;;5.28;;
22737;SDS011;11536;50.860;4.286;2023-03-11T07:28:54;13.00;;;5.38;;
22737;SDS011;11536;50.860;4.286;2023-03-11T07:31:22;9.48;;;5.07;;
22737;SDS011;11536;50.860;4.286;2023-03-11T07:33:52;17.58;;;5.57;;
22737;SDS011;11536;50.860;4.286;2023-03-11T07:36:19;9.88;;;5.50;;
22737;SDS011;11536;50.860;4.286;2023-03-11T07:38:46;14.77;;;5.68;;
22737;SDS011;11536;50.860;4.286;2023-03-11T07:41:12;13.65;;;5.28;;
22737;SDS011;11536;50.860;4.286;2023-03-11T07:43:39;14.20;;;5.65;;
22737;SDS011;11536;50.860;4.286;2023-03-11T07:46:07;14.85;;;5.90;;
22737;SDS011;11536;50.860;4.286;2023-03-11T07:48:36;11.32;;;5.25;;
22737;SDS011;11536;50.860;4.286;2023-03-11T07:51:07;14.45;;;5.20;;
22737;SDS011;11536;50.860;4.286;2023-03-11T07:53:35;10.50;;;5.13;;
22737;SDS011;11536;50.860;4.286;2023-03-11T07:56:01;10.02;;;4.95;;
22737;SDS011;11536;50.860;4.286;2023-03-11T07:58:28;10.25;;;4.60;;
22737;SDS011;11536;50.860;4.286;2023-03-11T08:00:54;11.05;;;4.88;;
22737;SDS011;11536;50.860;4.286;2023-03-11T08:03:24;13.52;;;4.72;;
22737;SDS011;11536;50.860;4.286;2023-03-11T08:05:59;13.65;;;5.05;;
22737;SDS011;11536;50.860;4.286;2023-03-11T08:08:26;9.48;;;4.60;;
22737;SDS011;11536;50.860;4.286;2023-03-11T08:10:52;13.27;;;5.10;;
22737;SDS011;11536;50.860;4.286;2023-03-11T08:13:18;12.32;;;4.90;;
22737;SDS011;11536;50.860;4.286;2023-03-11T08:15:44;10.25;;;4.53;;
22737;SDS011;11536;50.860;4.286;2023-03-11T08:18:10;13.27;;;4.45;;
22737;SDS011;11536;50.860;4.286;2023-03-11T08:20:37;10.27;;;3.72;;
22737;SDS011;11536;50.860;4.286;2023-03-11T08:23:02;13.00;;;4.32;;
22737;SDS011;11536;50.860;4.286;2023-03-11T08:25:28;8.77;;;3.65;;
22737;SDS011;11536;50.860;4.286;2023-03-11T08:27:54;11.48;;;4.22;;
22737;SDS011;11536;50.860;4.286;2023-03-11T08:30:20;15.18;;;4.80;;
22737;SDS011;11536;50.860;4.286;2023-03-11T08:32:46;14.23;;;4.88;;
22737;SDS011;11536;50.860;4.286;2023-03-11T08:35:13;12.93;;;4.85;;
22737;SDS011;11536;50.860;4.286;2023-03-11T08:37:39;15.40;;;5.63;;
22737;SDS011;11536;50.860;4.286;2023-03-11T08:40:04;17.63;;;7.65;;
22737;SDS011;11536;50.860;4.286;2023-03-11T08:42:30;15.27;;;6.28;;
22737;SDS011;11536;50.860;4.286;2023-03-11T08:44:56;13.63;;;5.72;;
22737;SDS011;11536;50.860;4.286;2023-03-11T08:47:21;12.77;;;5.32;;
22737;SDS011;11536;50.860;4.286;2023-03-11T08:49:47;13.68;;;5.65;;
22737;SDS011;11536;50.860;4.286;2023-03-11T08:52:13;13.55;;;5.35;;
22737;SDS011;11536;50.860;4.286;2023-03-11T08:54:39;15.80;;;4.88;;
22737;SDS011;11536;50.860;4.286;2023-03-11T08:57:06;14.65;;;3.97;;
22737;SDS011;11536;50.860;4.286;2023-03-11T08:59:32;11.45;;;4.22;;
22737;SDS011;11536;50.860;4.286;2023-03-11T09:01:58;10.52;;;3.40;;
22737;SDS011;11536;50.860;4.286;2023-03-11T09:04:24;12.68;;;3.88;;
22737;SDS011;11536;50.860;4.286;2023-03-11T09:06:49;12.35;;;3.75;;
22737;SDS011;11536;50.860;4.286;2023-03-11T09:09:15;15.27;;;4.80;;
22737;SDS011;11536;50.860;4.286;2023-03-11T09:11:44;11.18;;;4.13;;
22737;SDS011;11536;50.860;4.286;2023-03-11T09:14:20;11.00;;;4.53;;
22737;SDS011;11536;50.860;4.286;2023-03-11T09:16:46;11.77;;;5.10;;
22737;SDS011;11536;50.860;4.286;2023-03-11T09:19:11;12.68;;;4.80;;
22737;SDS011;11536;50.860;4.286;2023-03-11T09:21:37;15.18;;;6.45;;
22737;SDS011;11536;50.860;4.286;2023-03-11T09:24:03;16.15;;;4.50;;
22737;SDS011;11536;50.860;4.286;2023-03-11T09:26:30;9.82;;;3.97;;
22737;SDS011;11536;50.860;4.286;2023-03-11T09:28:56;13.93;;;3.13;;
22737;SDS011;11536;50.860;4.286;2023-03-11T09:31:22;9.35;;;2.80;;
22737;SDS011;11536;50.860;4.286;2023-03-11T09:33:47;11.55;;;3.28;;
22737;SDS011;11536;50.860;4.286;2023-03-11T09:36:16;12.02;;;3.53;;
22737;SDS011;11536;50.860;4.286;2023-03-11T09:38:43;8.52;;;2.30;;
22737;SDS011;11536;50.860;4.286;2023-03-11T09:41:17;8.82;;;2.63;;
22737;SDS011;11536;50.860;4.286;2023-03-11T09:44:30;6.88;;;1.67;;
22737;SDS011;11536;50.860;4.286;2023-03-11T09:46:42;9.63;;;2.33;;
22737;SDS011;11536;50.860;4.286;2023-03-11T09:55:12;6.13;;;1.00;;
22737;SDS011;11536;50.860;4.286;2023-03-11T09:57:51;7.97;;;1.80;;
22737;SDS011;11536;50.860;4.286;2023-03-11T10:00:18;9.15;;;1.73;;
22737;SDS011;11536;50.860;4.286;2023-03-11T10:02:47;4.97;;;1.02;;
22737;SDS011;11536;50.860;4.286;2023-03-11T10:05:15;7.30;;;1.40;;
22737;SDS011;11536;50.860;4.286;2023-03-11T10:07:50;8.88;;;2.85;;
22737;SDS011;11536;50.860;4.286;2023-03-11T10:10:26;8.13;;;2.20;;
22737;SDS011;11536;50.860;4.286;2023-03-11T10:15:46;13.05;;;2.30;;
22737;SDS011;11536;50.860;4.286;2023-03-11T10:18:32;8.43;;;1.70;;
22737;SDS011;11536;50.860;4.286;2023-03-11T10:26:56;8.32;;;1.70;;
22737;SDS011;11536;50.860;4.286;2023-03-11T10:29:29;6.68;;;1.67;;
22737;SDS011;11536;50.860;4.286;2023-03-11T10:32:09;7.63;;;1.67;;
22737;SDS011;11536;50.860;4.286;2023-03-11T10:34:49;10.68;;;1.88;;
22737;SDS011;11536;50.860;4.286;2023-03-11T10:37:34;6.18;;;1.70;;
22737;SDS011;11536;50.860;4.286;2023-03-11T10:42:45;7.18;;;1.35;;
22737;SDS011;11536;50.860;4.286;2023-03-11T10:45:12;8.75;;;1.50;;
22737;SDS011;11536;50.860;4.286;2023-03-11T10:47:38;8.05;;;2.20;;
22737;SDS011;11536;50.860;4.286;2023-03-11T10:50:04;6.28;;;1.58;;
22737;SDS011;11536;50.860;4.286;2023-03-11T10:52:30;7.47;;;1.10;;
22737;SDS011;11536;50.860;4.286;2023-03-11T10:55:00;6.93;;;1.20;;
22737;SDS011;11536;50.860;4.286;2023-03-11T10:57:28;6.32;;;1.40;;
22737;SDS011;11536;50.860;4.286;2023-03-11T10:59:58;9.13;;;3.03;;
22737;SDS011;11536;50.860;4.286;2023-03-11T11:02:29;9.93;;;2.20;;
22737;SDS011;11536;50.860;4.286;2023-03-11T11:07:40;7.97;;;1.90;;
22737;SDS011;11536;50.860;4.286;2023-03-11T11:15:38;4.20;;;1.50;;
22737;SDS011;11536;50.860;4.286;2023-03-11T11:18:15;6.93;;;1.55;;
22737;SDS011;11536;50.860;4.286;2023-03-11T11:21:04;5.40;;;1.50;;
22737;SDS011;11536;50.860;4.286;2023-03-11T11:23:32;6.47;;;1.23;;
22737;SDS011;11536;50.860;4.286;2023-03-11T11:26:13;6.20;;;1.63;;
22737;SDS011;11536;50.860;4.286;2023-03-11T11:29:32;10.75;;;1.50;;
22737;SDS011;11536;50.860;4.286;2023-03-11T11:31:43;10.35;;;1.33;;
22737;SDS011;11536;50.860;4.286;2023-03-11T11:34:27;12.30;;;1.70;;
22737;SDS011;11536;50.860;4.286;2023-03-11T11:36:58;5.20;;;1.08;;
22737;SDS011;11536;50.860;4.286;2023-03-11T11:39:27;6.53;;;1.35;;
22737;SDS011;11536;50.860;4.286;2023-03-11T11:41:57;8.60;;;1.55;;
22737;SDS011;11536;50.860;4.286;2023-03-11T11:44:32;10.10;;;1.58;;
22737;SDS011;11536;50.860;4.286;2023-03-11T11:47:01;8.57;;;1.10;;
22737;SDS011;11536;50.860;4.286;2023-03-11T11:49:35;6.10;;;1.38;;
22737;SDS011;11536;50.860;4.286;2023-03-11T11:52:03;11.82;;;1.65;;
22737;SDS011;11536;50.860;4.286;2023-03-11T11:54:44;6.43;;;1.13;;
22737;SDS011;11536;50.860;4.286;2023-03-11T11:57:18;4.70;;;1.00;;
22737;SDS011;11536;50.860;4.286;2023-03-11T11:59:46;6.32;;;1.23;;
22737;SDS011;11536;50.860;4.286;2023-03-11T12:04:46;4.90;;;1.05;;
22737;SDS011;11536;50.860;4.286;2023-03-11T12:10:36;7.63;;;1.23;;
22737;SDS011;11536;50.860;4.286;2023-03-11T12:16:04;5.85;;;1.23;;
22737;SDS011;11536;50.860;4.286;2023-03-11T12:18:38;5.95;;;1.00;;
22737;SDS011;11536;50.860;4.286;2023-03-11T12:27:29;4.90;;;1.17;;
22737;SDS011;11536;50.860;4.286;2023-03-11T12:30:28;4.60;;;1.15;;
22737;SDS011;11536;50.860;4.286;2023-03-11T12:33:00;10.70;;;1.38;;
22737;SDS011;11536;50.860;4.286;2023-03-11T12:35:35;5.50;;;1.13;;
22737;SDS011;11536;50.860;4.286;2023-03-11T12:45:57;7.45;;;1.60;;
22737;SDS011;11536;50.860;4.286;2023-03-11T12:50:53;9.48;;;1.48;;
22737;SDS011;11536;50.860;4.286;2023-03-11T12:56:28;5.55;;;1.30;;
22737;SDS011;11536;50.860;4.286;2023-03-11T13:05:11;6.15;;;1.65;;
22737;SDS011;11536;50.860;4.286;2023-03-11T13:18:02;7.88;;;1.83;;
22737;SDS011;11536;50.860;4.286;2023-03-11T13:34:15;3.95;;;1.10;;
22737;SDS011;11536;50.860;4.286;2023-03-11T13:42:39;5.32;;;1.25;;
22737;SDS011;11536;50.860;4.286;2023-03-11T13:45:18;3.70;;;0.90;;
22737;SDS011;11536;50.860;4.286;2023-03-11T13:48:00;8.52;;;1.02;;
22737;SDS011;11536;50.860;4.286;2023-03-11T13:50:34;6.82;;;1.17;;
22737;SDS011;11536;50.860;4.286;2023-03-11T13:53:05;5.40;;;0.82;;
22737;SDS011;11536;50.860;4.286;2023-03-11T13:55:37;6.32;;;0.80;;
22737;SDS011;11536;50.860;4.286;2023-03-11T13:58:14;7.53;;;0.80;;
22737;SDS011;11536;50.860;4.286;2023-03-11T14:00:51;5.53;;;0.70;;
22737;SDS011;11536;50.860;4.286;2023-03-11T14:03:25;4.68;;;0.70;;
22737;SDS011;11536;50.860;4.286;2023-03-11T14:06:02;4.35;;;0.80;;
22737;SDS011;11536;50.860;4.286;2023-03-11T14:08:33;3.30;;;0.80;;
22737;SDS011;11536;50.860;4.286;2023-03-11T14:11:01;8.02;;;1.77;;
22737;SDS011;11536;50.860;4.286;2023-03-11T14:16:12;3.85;;;0.73;;
22737;SDS011;11536;50.860;4.286;2023-03-11T14:19:27;3.80;;;0.70;;
22737;SDS011;11536;50.860;4.286;2023-03-11T14:21:43;4.22;;;0.85;;
22737;SDS011;11536;50.860;4.286;2023-03-11T14:24:29;3.20;;;0.80;;
22737;SDS011;11536;50.860;4.286;2023-03-11T14:26:56;6.40;;;1.23;;
22737;SDS011;11536;50.860;4.286;2023-03-11T14:29:44;5.72;;;1.10;;
22737;SDS011;11536;50.860;4.286;2023-03-11T14:34:57;4.63;;;1.10;;
22737;SDS011;11536;50.860;4.286;2023-03-11T14:37:24;4.35;;;0.90;;
22737;SDS011;11536;50.860;4.286;2023-03-11T14:40:01;7.40;;;1.17;;
22737;SDS011;11536;50.860;4.286;2023-03-11T14:42:31;6.97;;;1.25;;
22737;SDS011;11536;50.860;4.286;2023-03-11T14:47:44;8.57;;;0.95;;
22737;SDS011;11536;50.860;4.286;2023-03-11T14:50:18;6.45;;;1.15;;
22737;SDS011;11536;50.860;4.286;2023-03-11T14:58:20;4.45;;;0.98;;
22737;SDS011;11536;50.860;4.286;2023-03-11T15:00:49;4.25;;;1.00;;
22737;SDS011;11536;50.860;4.286;2023-03-11T15:03:30;4.43;;;0.90;;
22737;SDS011;11536;50.860;4.286;2023-03-11T15:06:02;6.85;;;1.33;;
22737;SDS011;11536;50.860;4.286;2023-03-11T15:08:33;5.60;;;1.20;;
22737;SDS011;11536;50.860;4.286;2023-03-11T15:11:27;8.38;;;1.30;;
22737;SDS011;11536;50.860;4.286;2023-03-11T15:13:53;3.70;;;0.95;;
22737;SDS011;11536;50.860;4.286;2023-03-11T15:16:34;4.97;;;1.10;;
22737;SDS011;11536;50.860;4.286;2023-03-11T15:19:22;6.05;;;1.00;;
22737;SDS011;11536;50.860;4.286;2023-03-11T15:21:53;5.93;;;1.00;;
22737;SDS011;11536;50.860;4.286;2023-03-11T15:24:30;4.88;;;1.15;;
22737;SDS011;11536;50.860;4.286;2023-03-11T15:27:02;6.68;;;1.15;;
22737;SDS011;11536;50.860;4.286;2023-03-11T15:29:30;6.53;;;1.20;;
22737;SDS011;11536;50.860;4.286;2023-03-11T15:31:57;3.65;;;0.80;;
22737;SDS011;11536;50.860;4.286;2023-03-11T15:34:30;6.53;;;1.10;;
22737;SDS011;11536;50.860;4.286;2023-03-11T15:39:49;5.55;;;0.90;;
22737;SDS011;11536;50.860;4.286;2023-03-11T15:42:17;6.07;;;1.08;;
22737;SDS011;11536;50.860;4.286;2023-03-11T15:44:59;4.13;;;0.90;;
22737;SDS011;11536;50.860;4.286;2023-03-11T15:47:31;6.32;;;1.00;;
22737;SDS011;11536;50.860;4.286;2023-03-11T15:49:57;4.13;;;0.80;;
22737;SDS011;11536;50.860;4.286;2023-03-11T15:52:33;3.58;;;0.70;;
22737;SDS011;11536;50.860;4.286;2023-03-11T15:54:59;6.35;;;1.40;;
22737;SDS011;11536;50.860;4.286;2023-03-11T15:57:26;7.03;;;1.10;;
22737;SDS011;11536;50.860;4.286;2023-03-11T15:59:54;5.50;;;1.30;;
22737;SDS011;11536;50.860;4.286;2023-03-11T16:02:22;5.47;;;1.10;;
22737;SDS011;11536;50.860;4.286;2023-03-11T16:04:49;5.57;;;1.10;;
22737;SDS011;11536;50.860;4.286;2023-03-11T16:07:15;3.72;;;0.90;;
22737;SDS011;11536;50.860;4.286;2023-03-11T16:09:41;5.28;;;1.23;;
22737;SDS011;11536;50.860;4.286;2023-03-11T16:14:47;3.85;;;1.02;;
22737;SDS011;11536;50.860;4.286;2023-03-11T16:17:13;6.25;;;1.30;;
22737;SDS011;11536;50.860;4.286;2023-03-11T16:19:43;5.25;;;1.00;;
22737;SDS011;11536;50.860;4.286;2023-03-11T16:22:16;3.75;;;1.10;;
22737;SDS011;11536;50.860;4.286;2023-03-11T16:24:49;6.57;;;1.13;;
22737;SDS011;11536;50.860;4.286;2023-03-11T16:27:17;6.93;;;1.10;;
22737;SDS011;11536;50.860;4.286;2023-03-11T16:29:43;4.53;;;1.17;;
22737;SDS011;11536;50.860;4.286;2023-03-11T16:32:09;6.22;;;1.20;;
22737;SDS011;11536;50.860;4.286;2023-03-11T16:34:36;4.00;;;1.15;;
22737;SDS011;11536;50.860;4.286;2023-03-11T16:37:03;6.90;;;1.13;;
22737;SDS011;11536;50.860;4.286;2023-03-11T16:39:30;6.88;;;1.45;;
22737;SDS011;11536;50.860;4.286;2023-03-11T16:41:56;6.25;;;1.40;;
22737;SDS011;11536;50.860;4.286;2023-03-11T16:44:21;4.53;;;1.08;;
22737;SDS011;11536;50.860;4.286;2023-03-11T16:46:47;5.22;;;1.02;;
22737;SDS011;11536;50.860;4.286;2023-03-11T16:49:13;5.30;;;1.17;;